Terminal Aerodrome Forecast
Issued by NWS Paducah, KY

Home | Current Version | Previous Version | Text Only | Print | Product List | Glossary On
Versions: 1 2 3 4 5 6 7 8 9 10 11 12 13 14 15 16 17 18 19 20 21 22 23 24 25 26 27 28
310
FTUS43 KPAH 141122
TAFPAH
TAF
KPAH 141122Z 1412/1512 06003KT 3SM -RA BR OVC003
      TEMPO 1412/1415 1/2SM -DZ FG
     FM150000 01005KT 1SM -DZ BR OVC003=

USA.gov is the U.S. government's official web portal to all federal, state and local government web resources and services.